Time;durP1;ratioP1;P1;durP2;ratioP2;P2;SDS_P1;SDS_P2;PMS_P1;PMS_P2;Temp;Humidity;BMP_temperature;BMP_pressure;BME280_temperature;BME280_humidity;BME280_pressure;Samples;Min_cycle;Max_cycle;Signal;HPM_P1;HPM_P2
2023/10/12 00:02:09;;;;;;;4.40;2.00;;;20.90;95.50;;;21.31;92.41;100617.97;5205895;28;20520;-51
2023/10/12 00:04:43;;;;;;;3.78;2.00;;;20.80;95.50;;;21.28;92.49;100624.19;5212313;28;20124;-51
2023/10/12 00:07:15;;;;;;;2.92;1.65;;;20.80;95.50;;;21.27;92.46;100622.41;5201155;28;20076;-50
2023/10/12 00:09:48;;;;;;;2.53;1.55;;;20.70;95.50;;;21.25;92.48;100633.91;5214964;28;20033;-51
2023/10/12 00:12:24;;;;;;;4.07;1.60;;;20.80;95.60;;;21.20;92.58;100631.34;5216583;28;20053;-52
2023/10/12 00:14:56;;;;;;;3.63;1.92;;;20.70;95.60;;;21.15;92.88;100633.16;5209646;28;20041;-51
2023/10/12 00:17:28;;;;;;;2.53;1.88;;;20.70;95.70;;;21.12;92.55;100627.88;5220497;28;20495;-51
2023/10/12 00:20:01;;;;;;;3.72;1.58;;;20.60;95.60;;;21.09;92.23;100622.63;5192124;28;20048;-51
2023/10/12 00:22:33;;;;;;;2.75;1.55;;;20.60;95.50;;;21.08;92.25;100626.16;5197073;28;20055;-51
2023/10/12 00:25:06;;;;;;;3.97;1.60;;;20.60;95.50;;;21.08;92.20;100631.47;5201832;28;20045;-53
2023/10/12 00:27:41;;;;;;;3.55;2.00;;;20.60;95.50;;;21.07;91.75;100627.06;5198297;28;20081;-52
2023/10/12 00:30:14;;;;;;;2.95;1.75;;;20.60;95.30;;;21.06;91.54;100623.53;5211631;28;20052;-52
2023/10/12 00:32:47;;;;;;;3.35;1.60;;;20.60;95.20;;;21.08;91.53;100615.56;5212268;28;20049;-51
2023/10/12 00:35:21;;;;;;;5.85;1.70;;;20.60;95.30;;;21.08;91.41;100627.03;5200499;28;20041;-52
2023/10/12 00:37:55;;;;;;;4.55;2.00;;;20.60;95.20;;;21.07;90.90;100627.06;5208606;28;20053;-51
2023/10/12 00:40:30;;;;;;;3.60;2.00;;;20.60;95.00;;;21.06;90.91;100620.88;5215296;28;20047;-51
2023/10/12 00:43:05;;;;;;;4.40;2.05;;;20.60;95.00;;;21.07;90.88;100624.41;5203830;28;20048;-52
2023/10/12 00:45:37;;;;;;;5.18;1.95;;;20.60;95.00;;;21.07;90.50;100624.41;5191869;28;20060;-51
2023/10/12 00:48:16;;;;;;;3.92;1.92;;;20.60;94.80;;;21.07;90.84;100635.88;5181334;28;20070;-51
2023/10/12 00:50:50;;;;;;;3.80;1.75;;;20.60;95.00;;;21.06;90.82;100622.63;5161327;28;20112;-52
2023/10/12 00:53:31;;;;;;;2.65;1.70;;;20.60;95.00;;;21.08;90.89;100626.16;5160264;28;20042;-52
2023/10/12 00:56:03;;;;;;;4.38;1.95;;;20.60;95.00;;;21.08;91.13;100620.88;5145020;28;20065;-51
2023/10/12 00:58:38;;;;;;;4.50;1.95;;;20.60;95.00;;;21.07;90.70;100608.50;5145046;28;20129;-52
2023/10/12 01:01:11;;;;;;;4.40;2.00;;;20.60;94.90;;;21.07;90.73;100614.69;5160478;28;20050;-51
2023/10/12 01:03:45;;;;;;;4.32;2.08;;;20.60;94.90;;;21.09;90.92;100606.72;5145609;28;20058;-52
2023/10/12 01:06:28;;;;;;;3.30;1.85;;;20.60;95.00;;;21.07;91.13;100587.31;5160369;28;20050;-51
2023/10/12 01:09:17;;;;;;;5.05;2.25;;;20.60;95.10;;;21.08;91.29;100589.06;5160645;28;20042;-50
2023/10/12 01:11:58;;;;;;;3.30;1.77;;;20.60;95.10;;;21.08;90.98;100602.31;5145970;28;20153;-51
2023/10/12 01:14:31;;;;;;;4.18;1.95;;;20.60;95.00;;;21.07;90.64;100601.44;5160242;28;20051;-51
2023/10/12 01:17:08;;;;;;;5.53;2.10;;;20.60;94.90;;;21.09;90.95;100590.81;5159892;28;20153;-50
2023/10/12 01:19:45;;;;;;;4.00;1.90;;;20.60;95.00;;;21.08;91.13;100599.66;5160018;28;20120;-51
2023/10/12 01:22:27;;;;;;;3.17;1.77;;;20.60;95.10;;;21.06;91.50;100598.78;5159548;28;20078;-51
2023/10/12 01:25:01;;;;;;;6.00;2.10;;;20.60;95.20;;;21.05;92.50;100594.38;5159650;28;20046;-51
2023/10/12 01:27:41;;;;;;;3.95;2.00;;;20.60;95.50;;;21.00;92.61;100606.84;5159523;28;20503;-51
2023/10/12 01:30:17;;;;;;;4.20;2.03;;;20.60;95.60;;;20.96;92.28;100605.09;5160048;28;20046;-51
2023/10/12 01:32:55;;;;;;;5.07;2.28;;;20.50;95.50;;;20.94;92.47;100601.59;5145368;28;20077;-50
2023/10/12 01:35:32;;;;;;;3.47;1.73;;;20.50;95.50;;;20.89;92.28;100604.28;5144587;28;20054;-51
2023/10/12 01:38:08;;;;;;;2.90;2.00;;;20.50;95.50;;;20.86;92.07;100615.81;5169268;28;20061;-51
2023/10/12 01:40:52;;;;;;;3.33;1.95;;;20.40;95.50;;;20.85;92.46;100626.38;5160468;28;20406;-51
2023/10/12 01:43:28;;;;;;;5.10;2.00;;;20.40;95.60;;;20.81;91.92;100632.63;5160453;28;20125;-52
2023/10/12 01:46:04;;;;;;;5.75;2.42;;;20.40;95.40;;;20.73;91.80;100630.03;5174124;28;20038;-51
2023/10/12 01:48:37;;;;;;;3.83;2.05;;;20.30;95.30;;;20.70;92.39;100629.19;5168346;28;20056;-51
2023/10/12 01:51:15;;;;;;;5.07;1.90;;;20.30;95.50;;;20.67;92.45;100615.97;5168088;28;20587;-52
2023/10/12 01:53:49;;;;;;;7.95;2.72;;;20.20;95.60;;;20.66;93.08;100627.47;5145012;28;20066;-52
2023/10/12 01:56:27;;;;;;;4.93;2.00;;;20.20;95.80;;;20.64;93.12;100642.50;5161283;28;20140;-51
2023/10/12 01:59:00;;;;;;;3.88;1.67;;;20.20;95.90;;;20.61;93.30;100656.66;5166961;28;20104;-50
2023/10/12 02:01:34;;;;;;;4.22;1.77;;;20.20;95.90;;;20.61;93.39;100656.66;5174195;28;20069;-51
2023/10/12 02:04:07;;;;;;;2.70;1.65;;;20.20;96.00;;;20.61;93.55;100675.19;5163290;28;20532;-51
2023/10/12 02:06:40;;;;;;;5.25;2.28;;;20.10;96.00;;;20.56;92.32;100690.22;5159657;28;20068;-51
2023/10/12 02:09:15;;;;;;;4.43;1.80;;;20.10;95.60;;;20.55;92.43;100683.19;5142498;28;20053;-51
2023/10/12 02:11:53;;;;;;;4.18;2.47;;;20.10;95.70;;;20.53;92.24;100691.09;5160554;28;20061;-51
2023/10/12 02:14:32;;;;;;;4.22;2.15;;;20.10;95.60;;;20.52;93.05;100686.72;5160287;28;20089;-50
2023/10/12 02:17:05;;;;;;;5.90;2.20;;;20.10;95.90;;;20.47;93.15;100696.44;5166590;28;20057;-51
2023/10/12 02:19:42;;;;;;;3.95;2.00;;;20.10;95.90;;;20.45;93.90;100702.66;5160069;28;20046;-51
2023/10/12 02:22:24;;;;;;;5.88;2.35;;;20.00;96.10;;;20.40;94.25;100694.69;5159793;28;20054;-50
2023/10/12 02:25:17;;;;;;;7.68;2.80;;;20.00;96.30;;;20.36;94.71;100700.06;5143882;28;20142;-51
2023/10/12 02:27:54;;;;;;;6.63;2.47;;;19.90;96.40;;;20.28;94.73;100706.28;5139398;28;20082;-52
2023/10/12 02:30:28;;;;;;;5.43;2.40;;;19.90;96.40;;;20.26;94.30;100723.03;5143563;28;20504;-52
2023/10/12 02:33:02;;;;;;;8.10;2.75;;;19.80;96.30;;;20.20;94.02;100723.06;5158043;28;20414;-50
2023/10/12 02:35:37;;;;;;;6.60;2.40;;;19.80;96.30;;;20.14;95.78;100733.69;5159138;28;20042;-51
2023/10/12 02:38:14;;;;;;;5.70;2.35;;;19.70;96.80;;;20.04;96.58;100735.50;5159025;28;20046;-51
2023/10/12 02:40:57;;;;;;;4.55;2.15;;;19.70;97.10;;;19.92;97.61;100743.50;5157326;28;20046;-50
2023/10/12 02:43:32;;;;;;;8.82;3.13;;;19.60;97.40;;;19.85;97.96;100741.78;5160414;28;20054;-51
2023/10/12 02:46:06;;;;;;;5.85;2.85;;;19.50;97.50;;;19.78;97.69;100752.38;5162394;28;20061;-52
2023/10/12 02:48:39;;;;;;;7.90;2.78;;;19.50;97.50;;;19.76;97.47;100759.44;5143736;28;20101;-51
2023/10/12 02:51:14;;;;;;;5.40;2.60;;;19.40;97.50;;;19.74;97.09;100749.75;5139677;28;20043;-51
2023/10/12 02:53:47;;;;;;;6.30;2.42;;;19.40;97.40;;;19.68;97.02;100766.50;5143758;28;20054;-52
2023/10/12 02:56:24;;;;;;;5.68;2.25;;;19.30;97.30;;;19.70;96.89;100770.03;5173400;28;20054;-52
2023/10/12 02:59:02;;;;;;;4.45;2.10;;;19.30;97.30;;;19.70;97.64;100780.63;5139656;28;20756;-51
2023/10/12 03:01:38;;;;;;;6.57;2.45;;;19.30;97.60;;;19.68;96.59;100778.84;5159643;28;20062;-52
2023/10/12 03:04:11;;;;;;;7.00;2.90;;;19.30;97.20;;;19.63;96.38;100784.16;5168878;28;20382;-51
2023/10/12 03:06:57;;;;;;;5.43;2.65;;;19.30;97.10;;;19.57;95.98;100773.56;5143001;28;20045;-51
2023/10/12 03:09:36;;;;;;;9.70;2.90;;;19.20;97.00;;;19.58;96.15;100775.34;5161417;28;20057;-52
2023/10/12 03:12:11;;;;;;;6.22;2.65;;;19.20;97.00;;;19.55;96.33;100770.03;5159070;28;20050;-51
2023/10/12 03:14:44;;;;;;;6.88;2.40;;;19.20;97.10;;;19.52;96.62;100759.47;5153799;28;20568;-52
2023/10/12 03:17:16;;;;;;;6.07;2.65;;;19.20;97.30;;;19.53;97.04;100763.88;5158497;28;20053;-51
2023/10/12 03:19:55;;;;;;;7.20;2.50;;;19.20;97.40;;;19.53;97.43;100762.09;5159517;28;20051;-51
2023/10/12 03:22:31;;;;;;;6.20;2.80;;;19.20;97.50;;;19.53;97.51;100755.94;5158608;28;20502;-52
2023/10/12 03:25:19;;;;;;;5.05;2.45;;;19.20;97.60;;;19.54;97.67;100786.78;5170088;28;20058;-52
2023/10/12 03:27:53;;;;;;;5.68;2.67;;;19.20;97.70;;;19.55;98.16;100796.47;5160851;28;20616;-51
2023/10/12 03:30:34;;;;;;;5.82;3.20;;;19.20;97.90;;;19.58;99.22;100791.22;5142599;28;20046;-51
2023/10/12 03:33:11;;;;;;;5.07;2.60;;;19.20;98.20;;;19.57;99.26;100786.78;5161991;28;20412;-51
2023/10/12 03:35:52;;;;;;;4.95;2.58;;;19.20;98.30;;;19.58;100.00;100766.53;5152727;28;20124;-51
2023/10/12 03:38:25;;;;;;;6.88;2.60;;;19.20;98.60;;;19.52;100.00;100764.75;5165816;28;20502;-52
2023/10/12 03:43:53;;;;;;;5.38;2.85;;;19.20;99.10;;;19.48;100.00;100742.72;5137137;28;20429;-51
2023/10/12 03:46:28;;;;;;;6.70;3.17;;;19.10;99.50;;;19.47;100.00;100729.53;5142623;28;20038;-51
2023/10/12 03:49:09;;;;;;;4.05;2.60;;;19.10;99.90;;;19.46;100.00;100727.75;5138684;28;20522;-52
2023/10/12 03:51:41;;;;;;;5.45;2.63;;;19.10;99.90;;;19.42;100.00;100720.72;5158331;28;20457;-51
2023/10/12 03:54:25;;;;;;;6.68;3.00;;;19.10;99.90;;;19.37;100.00;100726.03;5158335;28;20149;-52
2023/10/12 03:57:06;;;;;;;5.15;2.70;;;19.00;99.90;;;19.36;100.00;100731.28;5138708;28;20053;-50
2023/10/12 03:59:44;;;;;;;;;;;18.90;99.90;;;19.33;100.00;100715.47;5143532;28;20073;-52
2023/10/12 04:02:16;;;;;;;5.00;2.58;;;19.00;99.90;;;19.32;100.00;100704.00;5157475;28;20012;-50
2023/10/12 04:05:15;;;;;;;4.20;2.60;;;18.90;99.90;;;19.31;100.00;100677.59;5142685;28;20050;-50
2023/10/12 04:08:00;;;;;;;4.05;2.40;;;18.90;99.90;;;19.27;100.00;100668.78;5153343;28;20042;-51
2023/10/12 04:11:20;;;;;;;5.90;2.17;;;18.90;99.90;;;19.27;100.00;100670.56;5158465;28;20050;-50
2023/10/12 04:16:40;;;;;;;4.68;2.45;;;18.80;99.90;;;19.18;100.00;100667.06;5130853;28;20065;-51
2023/10/12 04:19:16;;;;;;;4.80;2.63;;;18.80;99.90;;;19.15;100.00;100666.16;5160511;28;20108;-51
2023/10/12 04:22:05;;;;;;;4.85;2.40;;;18.80;99.90;;;19.12;100.00;100661.78;5162944;28;20058;-52
2023/10/12 04:27:50;;;;;;;5.40;2.78;;;18.70;99.90;;;19.02;100.00;100667.94;5145301;28;20113;-51
2023/10/12 04:30:32;;;;;;;5.82;2.70;;;18.70;99.90;;;18.97;100.00;100680.28;5169134;28;20049;-52
2023/10/12 04:33:17;;;;;;;5.38;2.88;;;18.60;99.90;;;18.92;100.00;100698.81;5161559;28;20449;-51
2023/10/12 04:36:09;;;;;;;6.55;3.05;;;18.60;99.90;;;18.88;100.00;100712.88;5157006;28;20046;-51
2023/10/12 04:38:57;;;;;;;5.53;2.80;;;18.50;99.90;;;18.84;100.00;100737.50;5152001;28;20049;-51
2023/10/12 04:41:54;;;;;;;4.68;2.83;;;18.50;99.90;;;18.83;100.00;100756.00;5162180;28;20050;-51
2023/10/12 04:44:39;;;;;;;6.50;2.80;;;18.40;99.90;;;18.81;100.00;100765.69;5145436;28;20050;-51
2023/10/12 04:47:16;;;;;;;7.25;2.92;;;18.40;99.90;;;18.79;100.00;100764.81;5161283;28;20062;-51
2023/10/12 04:49:54;;;;;;;4.20;2.97;;;18.40;99.90;;;18.76;100.00;100749.84;5163736;28;20124;-51
2023/10/12 04:52:33;;;;;;;5.45;2.75;;;18.40;99.90;;;18.77;100.00;100753.34;5145398;28;20054;-50
2023/10/12 04:55:20;;;;;;;5.07;2.90;;;18.40;99.90;;;18.76;100.00;100768.31;5165095;28;20077;-50
2023/10/12 05:00:55;;;;;;;5.82;2.90;;;18.40;99.90;;;18.78;100.00;100779.78;5145213;28;20145;-51
2023/10/12 05:03:33;;;;;;;5.18;3.13;;;18.40;99.90;;;18.79;100.00;100772.75;5163182;28;20046;-51
2023/10/12 05:06:08;;;;;;;6.05;3.58;;;18.40;99.90;;;18.79;100.00;100778.03;5169398;28;20054;-51
2023/10/12 05:08:41;;;;;;;5.55;3.10;;;18.40;99.90;;;18.80;100.00;100779.78;5160750;28;20108;-50
2023/10/12 05:11:14;;;;;;;5.22;2.63;;;18.40;99.90;;;18.80;100.00;100778.03;5161268;28;20054;-50
2023/10/12 05:13:46;;;;;;;4.93;3.10;;;18.40;99.90;;;18.81;100.00;100789.47;5175852;28;20065;-51
2023/10/12 05:16:26;;;;;;;5.75;2.90;;;18.40;99.90;;;18.80;100.00;100761.28;5170307;28;20050;-50
2023/10/12 05:18:59;;;;;;;6.28;3.47;;;18.30;99.90;;;18.76;100.00;100760.41;5166507;28;20387;-50
2023/10/12 05:21:32;;;;;;;4.82;2.90;;;18.30;99.90;;;18.72;100.00;100768.34;5159487;28;20421;-50
2023/10/12 05:24:08;;;;;;;4.40;2.72;;;18.30;99.90;;;18.66;100.00;100770.09;5172015;28;20046;-51
2023/10/12 05:26:40;;;;;;;7.05;3.30;;;18.30;99.90;;;18.64;100.00;100763.88;5159820;28;20074;-53
2023/10/12 05:29:34;;;;;;;5.25;3.05;;;18.20;99.90;;;18.59;100.00;100778.84;5159849;28;20046;-51
2023/10/12 05:32:06;;;;;;;5.25;2.80;;;18.20;99.90;;;18.55;100.00;100787.63;5159675;28;20042;-52
2023/10/12 05:34:52;;;;;;;5.85;3.03;;;18.20;99.90;;;18.53;100.00;100789.38;5160845;28;20050;-52
2023/10/12 05:37:26;;;;;;;5.95;3.00;;;18.20;99.90;;;18.51;100.00;100791.13;5159409;28;20100;-51
2023/10/12 05:40:00;;;;;;;6.10;2.90;;;18.10;99.90;;;18.48;100.00;100791.13;5159495;28;20452;-52
2023/10/12 05:42:39;;;;;;;5.80;3.25;;;18.10;99.90;;;18.43;100.00;100783.19;5159318;28;20050;-51
2023/10/12 05:45:21;;;;;;;6.85;3.30;;;18.10;99.90;;;18.41;100.00;100802.56;5161775;28;20043;-50
2023/10/12 05:47:54;;;;;;;6.03;2.95;;;18.10;99.90;;;18.40;100.00;100803.44;5178433;28;20372;-50
2023/10/12 05:50:30;;;;;;;6.88;3.35;;;18.10;99.90;;;18.40;100.00;100808.72;5162166;28;20510;-50
2023/10/12 05:53:07;;;;;;;5.90;3.53;;;18.00;99.90;;;18.36;100.00;100815.72;5161902;28;20461;-50
2023/10/12 05:55:40;;;;;;;6.05;3.08;;;18.00;99.90;;;18.35;100.00;100810.44;5144279;28;20105;-50
2023/10/12 05:58:15;;;;;;;7.22;3.50;;;18.00;99.90;;;18.33;100.00;100807.81;5144787;28;20055;-50
2023/10/12 06:00:48;;;;;;;6.20;3.10;;;18.00;99.90;;;18.33;100.00;100812.22;5160661;28;20077;-50
2023/10/12 06:03:22;;;;;;;7.38;3.85;;;18.00;99.90;;;18.30;100.00;100806.91;5146433;28;20058;-50
2023/10/12 06:05:54;;;;;;;11.90;3.67;;;17.90;99.90;;;18.25;100.00;100808.63;5175489;28;20073;-50
2023/10/12 06:08:29;;;;;;;7.78;3.58;;;17.90;99.90;;;18.21;100.00;100806.88;5170277;28;20043;-49
2023/10/12 06:11:04;;;;;;;6.53;3.05;;;17.90;99.90;;;18.19;100.00;100809.50;5166507;28;20565;-49
2023/10/12 06:13:42;;;;;;;7.63;3.75;;;17.90;99.90;;;18.12;100.00;100805.94;5144422;28;20426;-49
2023/10/12 06:16:17;;;;;;;9.15;3.67;;;17.80;99.90;;;18.10;100.00;100805.06;5144618;28;20137;-50
2023/10/12 06:18:50;;;;;;;7.45;3.78;;;17.80;99.90;;;18.08;100.00;100801.56;5143684;28;20068;-50
2023/10/12 06:21:24;;;;;;;8.93;3.65;;;17.70;99.90;;;18.07;100.00;100798.91;5160785;28;20050;-50
2023/10/12 06:24:00;;;;;;;9.07;3.50;;;17.80;99.90;;;18.05;100.00;100806.81;5174180;28;20054;-49
2023/10/12 06:26:34;;;;;;;8.80;3.55;;;17.70;99.90;;;18.04;100.00;100797.13;5144978;28;20042;-50
2023/10/12 06:29:08;;;;;;;;;;;17.70;99.90;;;18.02;100.00;100801.53;5160695;28;20061;-50
2023/10/12 06:31:40;;;;;;;8.52;3.40;;;17.70;99.90;;;18.01;100.00;100805.03;5161024;28;20202;-50
2023/10/12 06:34:13;;;;;;;7.22;3.00;;;17.70;99.90;;;18.03;100.00;100807.69;5167525;28;20056;-50
2023/10/12 06:36:46;;;;;;;6.53;3.33;;;17.70;99.90;;;18.02;100.00;100817.34;5160813;28;20046;-49
2023/10/12 06:42:26;;;;;;;7.55;3.30;;;17.70;99.90;;;18.03;100.00;100827.03;5160041;28;20055;-50
2023/10/12 06:44:57;;;;;;;6.55;3.05;;;17.70;99.90;;;18.04;100.00;100841.09;5139566;28;20057;-49
2023/10/12 06:47:41;;;;;;;6.20;3.15;;;17.70;99.90;;;18.03;100.00;100834.94;5144273;28;20535;-49
2023/10/12 06:50:17;;;;;;;6.88;3.20;;;17.70;99.90;;;18.04;100.00;100841.97;5143177;28;20054;-48
2023/10/12 06:52:57;;;;;;;5.95;3.22;;;17.70;99.90;;;18.10;100.00;100847.28;5158370;28;20537;-48
2023/10/12 06:55:31;;;;;;;7.50;3.35;;;17.70;99.90;;;18.19;100.00;100856.97;5142941;28;20050;-51
2023/10/12 06:58:04;;;;;;;6.25;3.60;;;17.80;99.90;;;18.24;100.00;100859.66;5159632;28;20405;-51
2023/10/12 07:00:59;;;;;;;8.18;3.28;;;17.90;99.90;;;18.23;100.00;100858.78;5160583;28;20176;-52
2023/10/12 07:03:29;;;;;;;7.60;3.53;;;17.90;99.90;;;18.20;100.00;100864.06;5162020;28;20050;-52
2023/10/12 07:06:01;;;;;;;8.00;3.60;;;17.90;99.90;;;18.21;100.00;100867.56;5151459;28;20077;-50
2023/10/12 07:08:42;;;;;;;6.53;3.38;;;17.90;99.90;;;18.19;100.00;100878.09;5174144;28;20048;-50
2023/10/12 07:11:18;;;;;;;6.35;3.60;;;17.90;99.90;;;18.13;100.00;100865.78;5159847;28;20066;-50
2023/10/12 07:13:52;;;;;;;7.57;3.70;;;17.90;99.90;;;18.08;100.00;100864.88;5160148;28;20638;-50
2023/10/12 07:16:25;;;;;;;;;;;17.80;99.90;;;18.04;100.00;100867.47;5141507;28;20054;-49
2023/10/12 07:18:58;;;;;;;8.55;3.28;;;17.70;99.90;;;18.00;100.00;100866.59;5143862;28;19925;-49
2023/10/12 07:21:30;;;;;;;9.80;4.00;;;17.70;99.90;;;17.97;100.00;100871.81;5137358;28;20313;-50
2023/10/12 07:24:07;;;;;;;10.55;4.03;;;17.70;99.90;;;17.92;100.00;100872.66;5152370;28;20069;-51
2023/10/12 07:26:48;;;;;;;7.32;3.97;;;17.60;99.90;;;17.87;100.00;100873.53;5161152;28;20066;-52
2023/10/12 07:29:35;;;;;;;8.10;3.60;;;17.60;99.90;;;17.89;100.00;100878.81;5151025;28;20145;-51
2023/10/12 07:32:18;;;;;;;8.90;3.72;;;17.60;99.90;;;17.90;100.00;100876.19;5147741;28;20050;-50
2023/10/12 07:34:54;;;;;;;10.07;4.32;;;17.60;99.90;;;17.93;100.00;100885.88;5168485;28;20144;-50
2023/10/12 07:37:27;;;;;;;9.52;4.53;;;17.60;99.90;;;17.96;100.00;100890.28;5143629;28;20513;-50
2023/10/12 07:40:17;;;;;;;9.70;3.88;;;17.60;99.90;;;17.96;100.00;100891.16;5144547;28;20046;-50
2023/10/12 07:42:54;;;;;;;7.65;3.55;;;17.60;99.90;;;17.96;100.00;100896.44;5139257;28;20042;-51
2023/10/12 07:45:28;;;;;;;7.60;3.63;;;17.70;99.90;;;17.97;100.00;100892.03;5143754;28;20513;-50
2023/10/12 07:48:00;;;;;;;8.10;3.53;;;17.70;99.90;;;18.02;100.00;100885.94;5144375;28;20397;-51
2023/10/12 07:50:37;;;;;;;7.47;3.50;;;17.70;99.90;;;18.05;100.00;100901.75;5153016;28;20538;-49
2023/10/12 07:53:22;;;;;;;8.18;3.90;;;17.70;99.90;;;18.07;100.00;100910.59;5148501;28;20452;-49
2023/10/12 07:56:00;;;;;;;10.38;3.95;;;17.80;99.90;;;18.06;100.00;100902.63;5169356;28;20052;-49
2023/10/12 07:58:35;;;;;;;7.30;3.33;;;17.70;99.90;;;18.02;100.00;100893.84;5177191;28;20046;-49
2023/10/12 08:01:26;;;;;;;11.35;3.70;;;17.70;99.90;;;17.99;100.00;100896.44;5148407;28;20054;-49
2023/10/12 08:03:58;;;;;;;5.88;3.40;;;17.70;99.90;;;17.94;100.00;100898.19;5159765;28;20057;-50
2023/10/12 08:06:41;;;;;;;7.28;3.33;;;17.60;99.90;;;17.93;100.00;100906.97;5172047;28;20038;-48
2023/10/12 08:09:39;;;;;;;7.30;3.47;;;17.60;99.90;;;17.93;100.00;100896.44;5166331;28;20379;-49
2023/10/12 08:12:24;;;;;;;7.65;3.50;;;17.60;99.90;;;17.93;100.00;100896.44;5147591;28;20043;-49
2023/10/12 08:15:09;;;;;;;7.40;3.58;;;17.60;99.90;;;17.89;100.00;100889.38;5165660;28;20080;-49
2023/10/12 08:17:45;;;;;;;6.78;3.65;;;17.60;99.90;;;17.89;100.00;100886.72;5173162;28;20042;-49
2023/10/12 08:23:10;;;;;;;6.95;3.47;;;17.60;99.90;;;17.89;100.00;100900.78;5160313;28;20425;-48
2023/10/12 08:25:48;;;;;;;8.02;3.65;;;17.60;99.90;;;17.89;100.00;100890.25;5169843;28;20379;-48
2023/10/12 08:28:21;;;;;;;9.02;3.65;;;17.60;99.90;;;17.88;100.00;100891.13;5147678;28;20051;-49
2023/10/12 08:31:00;;;;;;;7.82;3.58;;;17.60;99.90;;;17.87;100.00;100880.56;5158482;28;20585;-49
2023/10/12 08:33:58;;;;;;;7.28;3.15;;;17.50;99.90;;;17.87;100.00;100885.84;5152994;28;20137;-49
2023/10/12 08:36:29;;;;;;;7.65;3.13;;;17.60;99.90;;;17.92;100.00;100894.63;5154992;28;20510;-49
2023/10/12 08:39:08;;;;;;;7.38;3.53;;;17.60;99.90;;;17.94;100.00;100892.91;5151161;28;20060;-48
2023/10/12 08:42:08;;;;;;;7.97;3.22;;;17.60;99.90;;;17.96;100.00;100891.16;5150033;28;20578;-49
2023/10/12 08:44:39;;;;;;;7.43;3.72;;;17.60;99.90;;;17.97;100.00;100882.38;5155601;28;20037;-48
2023/10/12 08:47:23;;;;;;;8.15;3.40;;;17.60;99.90;;;17.98;100.00;100889.41;5149329;28;20097;-49
2023/10/12 08:50:01;;;;;;;5.65;2.95;;;17.70;99.90;;;18.02;100.00;100890.31;5152210;28;20541;-49
2023/10/12 08:52:34;;;;;;;7.57;3.63;;;17.70;99.90;;;18.02;100.00;100892.97;5170464;28;20053;-49
2023/10/12 08:55:11;;;;;;;6.43;2.80;;;17.70;99.90;;;18.05;100.00;100890.31;5152919;28;20038;-50
2023/10/12 08:58:01;;;;;;;7.18;2.97;;;17.70;99.90;;;18.07;100.00;100878.06;5168680;28;20501;-49
2023/10/12 09:00:44;;;;;;;6.22;3.10;;;17.70;99.90;;;18.11;100.00;100879.81;5173970;28;20054;-49
2023/10/12 09:03:29;;;;;;;6.60;3.20;;;17.80;99.90;;;18.15;100.00;100879.84;5147137;28;20057;-48
2023/10/12 09:06:07;;;;;;;6.25;3.08;;;17.80;99.90;;;18.24;100.00;100886.91;5148173;28;20077;-49
2023/10/12 09:08:46;;;;;;;7.03;3.28;;;17.80;99.90;;;18.29;100.00;100879.91;5147800;28;20046;-49
2023/10/12 09:11:19;;;;;;;8.57;3.53;;;17.90;99.90;;;18.32;100.00;100879.03;5147467;28;20049;-48
2023/10/12 09:13:52;;;;;;;6.55;3.47;;;17.90;99.90;;;18.35;100.00;100865.88;5147822;28;20145;-48
2023/10/12 09:16:26;;;;;;;6.97;3.28;;;18.00;99.90;;;18.39;100.00;100855.34;5147644;28;20085;-49
2023/10/12 09:19:07;;;;;;;6.85;3.08;;;18.00;99.90;;;18.45;100.00;100870.28;5147964;28;20042;-48
2023/10/12 09:21:42;;;;;;;6.30;3.63;;;18.10;99.90;;;18.49;100.00;100869.44;5147713;28;20077;-49
2023/10/12 09:24:27;;;;;;;8.15;3.65;;;18.10;99.90;;;18.53;100.00;100878.25;5147494;28;20050;-48
2023/10/12 09:27:11;;;;;;;7.47;3.28;;;18.10;99.90;;;18.54;100.00;100874.75;5163622;28;20042;-49
2023/10/12 09:29:57;;;;;;;8.18;3.58;;;18.20;99.90;;;18.58;100.00;100877.41;5180296;28;20050;-48
2023/10/12 09:32:32;;;;;;;9.00;3.58;;;18.20;99.90;;;18.59;100.00;100868.59;5163280;28;20081;-49
2023/10/12 09:35:14;;;;;;;7.70;3.47;;;18.20;99.90;;;18.63;100.00;100869.47;5179595;28;20563;-48
2023/10/12 09:37:51;;;;;;;6.80;3.22;;;18.30;99.90;;;18.68;100.00;100873.06;5179826;28;20496;-48
2023/10/12 09:40:29;;;;;;;5.82;2.95;;;18.30;99.90;;;18.73;100.00;100873.94;5163133;28;20054;-49
2023/10/12 09:43:06;;;;;;;7.05;3.25;;;18.30;99.90;;;18.78;100.00;100885.41;5147404;28;20065;-49
2023/10/12 09:45:41;;;;;;;7.25;2.95;;;18.40;99.90;;;18.81;100.00;100881.88;5163258;28;20395;-48
2023/10/12 09:48:24;;;;;;;7.32;3.20;;;18.40;99.90;;;18.85;100.00;100889.84;5163547;28;20058;-49
2023/10/12 09:50:58;;;;;;;6.57;3.00;;;18.50;99.90;;;18.92;100.00;100888.09;5146951;28;20061;-48
2023/10/12 09:53:37;;;;;;;7.97;3.30;;;18.50;99.90;;;18.95;100.00;100882.78;5146920;28;20097;-50
2023/10/12 09:56:15;;;;;;;7.30;3.45;;;18.60;99.90;;;18.98;100.00;100877.53;5146696;28;20058;-48
2023/10/12 09:58:52;;;;;;;8.57;3.55;;;18.60;99.90;;;19.02;100.00;100867.84;5146934;28;20553;-49
2023/10/12 10:01:49;;;;;;;6.68;3.30;;;18.60;99.90;;;19.04;100.00;100874.91;5147114;28;20042;-48
2023/10/12 10:04:34;;;;;;;6.72;3.33;;;18.60;99.90;;;19.08;100.00;100868.72;5146608;28;20049;-48
2023/10/12 10:07:25;;;;;;;8.57;3.25;;;18.70;99.90;;;19.13;100.00;100864.34;5146669;28;20054;-48
2023/10/12 10:10:05;;;;;;;7.63;3.50;;;18.70;99.90;;;19.17;100.00;100863.47;5146519;28;20140;-49
2023/10/12 10:12:42;;;;;;;7.80;3.67;;;18.80;99.90;;;19.19;100.00;100869.63;5146341;28;20046;-49
2023/10/12 10:15:23;;;;;;;7.95;3.90;;;18.80;99.90;;;19.23;100.00;100866.13;5145507;28;20050;-48
2023/10/12 10:17:56;;;;;;;8.10;3.88;;;18.80;99.90;;;19.30;100.00;100871.38;5178287;28;20046;-49
2023/10/12 10:20:56;;;;;;;7.55;3.55;;;18.90;99.90;;;19.38;100.00;100869.63;5163340;28;20109;-49
2023/10/12 10:23:36;;;;;;;8.15;3.70;;;18.90;99.90;;;19.45;100.00;100876.69;5145701;28;20042;-50
2023/10/12 10:26:20;;;;;;;8.70;3.47;;;19.00;99.90;;;19.52;100.00;100870.50;5161882;28;20050;-49
2023/10/12 10:29:04;;;;;;;9.52;4.18;;;19.10;99.90;;;19.56;100.00;100856.41;5145676;28;20077;-49
2023/10/12 10:31:41;;;;;;;9.52;4.45;;;19.20;99.90;;;19.61;100.00;100870.53;5144677;28;20505;-50
2023/10/12 10:34:23;;;;;;;42.58;19.38;;;19.20;99.90;;;19.79;100.00;100873.16;5142697;28;20042;-49
2023/10/12 10:36:57;;;;;;;49.45;23.27;;;19.40;99.90;;;19.99;100.00;100877.53;5148771;28;20046;-49
2023/10/12 10:39:31;;;;;;;;;;;19.60;99.90;;;20.12;100.00;100878.38;5145752;28;20064;-50
2023/10/12 10:42:07;;;;;;;25.70;11.77;;;19.70;99.90;;;20.21;100.00;100873.94;5174675;28;20019;-50
2023/10/12 10:44:42;;;;;;;20.60;9.68;;;19.80;99.90;;;20.35;100.00;100870.38;5155545;28;20061;-50
2023/10/12 10:47:17;;;;;;;13.70;6.43;;;19.90;99.90;;;20.48;100.00;100869.47;5145491;28;20057;-50
2023/10/12 10:49:50;;;;;;;14.25;6.03;;;20.00;99.90;;;20.61;100.00;100868.50;5145308;28;20065;-50
2023/10/12 10:52:26;;;;;;;10.57;4.88;;;20.20;99.90;;;20.69;100.00;100874.63;5145144;28;20442;-50
2023/10/12 10:55:01;;;;;;;10.60;4.72;;;20.20;99.90;;;20.66;100.00;100879.94;5143061;28;20050;-50
2023/10/12 10:57:37;;;;;;;9.00;4.30;;;20.20;99.90;;;20.72;100.00;100881.66;5166435;28;20050;-50
2023/10/12 11:00:16;;;;;;;7.82;3.78;;;20.30;99.90;;;20.89;100.00;100886.88;5145436;28;20056;-50
2023/10/12 11:02:48;;;;;;;9.50;3.95;;;20.40;99.90;;;20.96;100.00;100885.97;5161139;28;20069;-51
2023/10/12 11:05:28;;;;;;;6.57;3.65;;;20.50;99.90;;;20.90;100.00;100893.94;5145007;28;20045;-50
2023/10/12 11:08:18;;;;;;;9.60;4.00;;;20.40;99.90;;;20.77;100.00;100880.75;5149705;28;20104;-50
2023/10/12 11:13:44;;;;;;;7.72;3.45;;;20.30;99.90;;;20.84;100.00;100865.72;5145344;28;20413;-50